El Eden International Airport

Airport
ICAO code: 
SKAR
IATA Code: 
AXM
Summary
ICAO Region: 
CARSAM
Territory: 
Location: 
La Tebaida, Quindio Department
Serving: 
Armenia
Elevation: 
3990 ft
Coordinates: 
Aerial View: 
4° 27' 10.377" N, 75° 45' 58.674" W
Metar
Observation
SKAR 022200Z 00000KT 9999 BKN025 26/19 Q1013 RMK A2992
Station
Armenia / El Eden
Date/Time
2021-12-02 22:00:00
Wind direction
Wind speed
00 kts
Lowest cloud amount
broken clouds
Temperature
26°C
Dew point
19°C
Humidity
65%
QNH
1013 hPa
Weather condition
n/a

El Edén International Airport is an international airport serving Armenia, the capital of the Quindío Department of Colombia. The airport is 13km southwest of Armenia, near the town of La Tebaida.

Climatology

Oceanic climate (Köppen climate classification Cfb)

Runways

Designator Length Width Surface Rops
2/20 2147 36 ASP No/No
Airport map: 
Aerial View: 

SKYbrary Partners:

Safety knowledge contributed by: